Time;durP1;ratioP1;P1;durP2;ratioP2;P2;SDS_P1;SDS_P2;PMS_P1;PMS_P2;Temp;Humidity;BMP_temperature;BMP_pressure;BME280_temperature;BME280_humidity;BME280_pressure;Samples;Min_cycle;Max_cycle;Signal;HPM_P1;HPM_P2
2022/05/13 00:00:16;;;;;;;9.75;3.95;;;12.00;99.90;;;;;;5067752;28;20053;-58
2022/05/13 00:02:43;;;;;;;10.98;4.13;;;12.00;99.90;;;;;;5060608;28;20079;-58
2022/05/13 00:05:09;;;;;;;13.68;5.05;;;12.00;99.90;;;;;;5069353;28;20274;-57
2022/05/13 00:07:35;;;;;;;7.43;4.07;;;12.00;99.90;;;;;;5050579;28;20405;-58
2022/05/13 00:10:05;;;;;;;8.90;4.00;;;12.00;99.90;;;;;;5051583;28;20048;-58
2022/05/13 00:12:35;;;;;;;12.98;4.38;;;12.00;99.90;;;;;;5069571;28;20044;-59
2022/05/13 00:15:02;;;;;;;11.68;4.65;;;12.00;99.90;;;;;;5068810;28;20456;-59
2022/05/13 00:17:29;;;;;;;10.88;3.88;;;12.00;99.90;;;;;;5068395;28;20364;-58
2022/05/13 00:19:55;;;;;;;13.25;4.68;;;12.00;99.90;;;;;;5070914;28;20047;-58
2022/05/13 00:22:22;;;;;;;12.98;5.22;;;12.00;99.90;;;;;;5068472;28;20056;-58
2022/05/13 00:24:48;;;;;;;11.07;4.40;;;12.10;99.90;;;;;;5064446;28;20509;-58
2022/05/13 00:27:14;;;;;;;13.23;4.75;;;12.10;99.90;;;;;;5069703;28;20037;-58
2022/05/13 00:29:40;;;;;;;12.07;4.70;;;12.10;99.90;;;;;;5068509;28;20125;-58
2022/05/13 00:32:06;;;;;;;12.73;4.68;;;12.00;99.90;;;;;;5048658;28;20502;-59
2022/05/13 00:34:33;;;;;;;14.45;4.85;;;12.10;99.90;;;;;;5051270;28;20033;-59
2022/05/13 00:37:00;;;;;;;10.98;4.32;;;12.10;99.90;;;;;;5051870;28;20105;-58
2022/05/13 00:39:26;;;;;;;11.07;4.85;;;12.10;99.90;;;;;;5046225;28;20049;-59
2022/05/13 00:41:53;;;;;;;9.48;4.70;;;12.10;99.90;;;;;;5056600;28;20091;-60
2022/05/13 00:44:19;;;;;;;10.48;4.25;;;12.10;99.90;;;;;;5049644;28;20044;-60
2022/05/13 00:46:45;;;;;;;12.10;4.80;;;12.10;99.90;;;;;;5048921;28;20379;-57
2022/05/13 00:49:14;;;;;;;13.02;4.80;;;12.10;99.90;;;;;;5052505;28;20052;-59
2022/05/13 00:51:47;;;;;;;12.52;4.90;;;12.10;99.90;;;;;;5049120;28;24486;-59
2022/05/13 00:54:15;;;;;;;11.20;4.20;;;12.10;99.90;;;;;;5051276;28;20076;-59
2022/05/13 00:56:43;;;;;;;13.50;4.80;;;12.10;99.90;;;;;;5058145;28;20048;-59
2022/05/13 00:59:13;;;;;;;11.20;4.57;;;12.10;99.90;;;;;;5051429;28;20076;-59
2022/05/13 01:01:39;;;;;;;9.60;4.18;;;12.10;99.90;;;;;;5052686;28;20094;-58
2022/05/13 01:04:11;;;;;;;10.52;4.20;;;12.10;99.90;;;;;;5046112;28;20136;-58
2022/05/13 01:06:41;;;;;;;9.93;3.90;;;12.10;99.90;;;;;;5046803;28;20195;-58
2022/05/13 01:09:07;;;;;;;13.43;5.03;;;12.10;99.90;;;;;;5049794;28;20554;-60
2022/05/13 01:11:36;;;;;;;10.77;4.32;;;12.10;99.90;;;;;;5045034;28;20036;-58
2022/05/13 01:14:09;;;;;;;14.88;4.28;;;12.10;99.90;;;;;;5049584;28;20079;-58
2022/05/13 01:19:20;;;;;;;15.40;4.45;;;12.10;99.90;;;;;;5046802;28;20045;-59
2022/05/13 01:21:50;;;;;;;18.35;4.50;;;12.10;99.90;;;;;;5051234;28;20057;-58
2022/05/13 01:24:19;;;;;;;15.07;4.68;;;12.20;99.90;;;;;;5029704;28;20503;-59
2022/05/13 01:26:45;;;;;;;13.27;4.45;;;12.20;99.90;;;;;;5048992;28;20053;-59
2022/05/13 01:29:11;;;;;;;10.85;4.30;;;12.20;99.90;;;;;;5054782;28;20369;-59
2022/05/13 01:31:39;;;;;;;11.70;4.22;;;12.20;99.90;;;;;;5064711;28;20448;-59
2022/05/13 01:34:08;;;;;;;17.73;4.43;;;12.20;99.90;;;;;;5070311;28;20153;-58
2022/05/13 01:36:35;;;;;;;11.18;5.05;;;12.20;99.90;;;;;;5069773;28;20124;-57
2022/05/13 01:39:02;;;;;;;9.55;4.75;;;12.20;99.90;;;;;;5071372;28;20643;-59
2022/05/13 01:41:28;;;;;;;10.27;4.32;;;12.20;99.90;;;;;;5070770;28;20044;-58
2022/05/13 01:43:55;;;;;;;14.80;5.00;;;12.20;99.90;;;;;;5072225;28;20043;-59
2022/05/13 01:46:22;;;;;;;12.23;4.55;;;12.20;99.90;;;;;;5070631;28;20036;-58
2022/05/13 01:48:49;;;;;;;16.85;5.15;;;12.20;99.90;;;;;;5061857;28;20045;-58
2022/05/13 01:51:15;;;;;;;15.10;4.63;;;12.20;99.90;;;;;;5056973;28;20039;-58
2022/05/13 01:53:41;;;;;;;14.32;5.15;;;12.20;99.90;;;;;;5071668;28;20117;-58
2022/05/13 01:56:07;;;;;;;10.85;4.60;;;12.20;99.90;;;;;;5039083;28;20127;-58
2022/05/13 01:58:34;;;;;;;14.05;4.95;;;12.20;99.90;;;;;;5072438;28;20502;-58
2022/05/13 02:01:01;;;;;;;14.50;4.88;;;12.20;99.90;;;;;;5068579;28;20101;-60
2022/05/13 02:03:46;;;;;;;14.05;5.30;;;12.20;99.90;;;;;;5069360;28;20466;-59
2022/05/13 02:06:26;;;;;;;20.00;5.18;;;12.20;99.90;;;;;;5069607;28;20040;-58
2022/05/13 02:08:55;;;;;;;13.05;4.65;;;12.20;99.90;;;;;;5069154;28;20056;-58
2022/05/13 02:11:22;;;;;;;15.07;4.88;;;12.20;99.90;;;;;;5048254;28;20051;-58
2022/05/13 02:13:49;;;;;;;12.20;4.93;;;12.20;99.90;;;;;;5071733;28;20036;-57
2022/05/13 02:16:15;;;;;;;13.43;5.55;;;12.20;99.90;;;;;;5058170;28;20126;-58
2022/05/13 02:18:41;;;;;;;14.02;5.85;;;12.20;99.90;;;;;;5070843;28;20139;-58
2022/05/13 02:21:08;;;;;;;19.90;5.80;;;12.20;99.90;;;;;;5071554;28;20044;-58
2022/05/13 02:23:34;;;;;;;16.50;5.50;;;12.20;99.90;;;;;;5065965;28;20039;-57
2022/05/13 02:26:03;;;;;;;15.25;6.13;;;12.20;99.90;;;;;;5072249;28;20383;-58
2022/05/13 02:28:30;;;;;;;17.10;5.80;;;12.20;99.90;;;;;;5057696;28;20040;-57
2022/05/13 02:30:56;;;;;;;18.35;5.80;;;12.20;99.90;;;;;;5069963;28;20060;-58
2022/05/13 02:33:22;;;;;;;22.50;6.30;;;12.20;99.90;;;;;;5054515;28;20048;-58
2022/05/13 02:35:49;;;;;;;19.70;6.47;;;12.20;99.90;;;;;;5070450;28;20451;-58
2022/05/13 02:38:15;;;;;;;18.48;6.22;;;12.20;99.90;;;;;;5069027;28;20051;-58
2022/05/13 02:43:27;;;;;;;15.65;5.72;;;12.20;99.90;;;;;;5070719;28;20051;-57
2022/05/13 02:45:53;;;;;;;15.88;5.30;;;12.20;99.90;;;;;;5066114;28;20048;-58
2022/05/13 02:48:19;;;;;;;17.27;5.65;;;12.20;99.90;;;;;;5070525;28;20036;-58
2022/05/13 02:50:45;;;;;;;16.17;5.72;;;12.20;99.90;;;;;;5072279;28;20048;-58
2022/05/13 02:53:12;;;;;;;22.33;5.90;;;12.20;99.90;;;;;;5068112;28;20194;-57
2022/05/13 02:55:38;;;;;;;20.83;6.22;;;12.20;99.90;;;;;;5074477;28;20053;-57
2022/05/13 02:58:04;;;;;;;16.85;5.65;;;12.20;99.90;;;;;;5071063;28;20107;-58
2022/05/13 03:00:31;;;;;;;15.82;5.13;;;12.10;99.90;;;;;;5069786;28;20052;-58
2022/05/13 03:02:57;;;;;;;18.40;5.47;;;12.10;99.90;;;;;;5070150;28;20517;-57
2022/05/13 03:05:24;;;;;;;20.80;5.70;;;12.10;99.90;;;;;;5054237;28;20041;-58
2022/05/13 03:07:50;;;;;;;23.58;6.45;;;12.10;99.90;;;;;;5066932;28;20048;-58
2022/05/13 03:10:17;;;;;;;16.65;6.10;;;12.10;99.90;;;;;;5049967;28;20059;-59
2022/05/13 03:12:43;;;;;;;20.08;6.22;;;12.10;99.90;;;;;;5050434;28;20078;-58
2022/05/13 03:15:10;;;;;;;14.60;5.05;;;12.10;99.90;;;;;;5069083;28;20600;-58
2022/05/13 03:17:37;;;;;;;18.30;6.18;;;12.10;99.90;;;;;;5071057;28;20063;-58
2022/05/13 03:20:06;;;;;;;17.42;5.70;;;12.10;99.90;;;;;;5052249;28;20184;-58
2022/05/13 03:22:32;;;;;;;17.73;5.50;;;12.10;99.90;;;;;;5069337;28;20043;-57
2022/05/13 03:24:59;;;;;;;16.92;5.70;;;12.10;99.90;;;;;;5070226;28;20044;-57
2022/05/13 03:27:26;;;;;;;22.80;6.13;;;12.10;99.90;;;;;;5066029;28;20281;-57
2022/05/13 03:29:52;;;;;;;20.95;6.00;;;12.10;99.90;;;;;;5072204;28;20496;-58
2022/05/13 03:32:18;;;;;;;17.58;5.93;;;12.10;99.90;;;;;;5068103;28;20070;-59
2022/05/13 03:34:44;;;;;;;23.10;5.63;;;12.10;99.90;;;;;;5071663;28;20125;-58
2022/05/13 03:37:10;;;;;;;19.52;6.15;;;12.10;99.90;;;;;;5071920;28;20056;-56
2022/05/13 03:39:36;;;;;;;19.90;5.93;;;12.10;99.90;;;;;;5066012;28;20509;-59
2022/05/13 03:42:03;;;;;;;24.65;6.07;;;12.10;99.90;;;;;;5070710;28;20045;-58
2022/05/13 03:44:30;;;;;;;21.30;5.80;;;12.10;99.90;;;;;;5069324;28;20861;-58
2022/05/13 03:46:55;;;;;;;22.85;6.20;;;12.10;99.90;;;;;;5071082;28;20046;-58
2022/05/13 03:49:21;;;;;;;19.15;6.03;;;12.20;99.90;;;;;;5056642;28;20402;-58
2022/05/13 03:51:47;;;;;;;26.65;6.78;;;12.10;99.90;;;;;;5052025;28;20052;-58
2022/05/13 03:54:13;;;;;;;19.33;5.72;;;12.20;99.90;;;;;;5071843;28;20505;-57
2022/05/13 03:56:39;;;;;;;20.52;5.80;;;12.20;99.90;;;;;;5056925;28;20051;-59
2022/05/13 03:59:05;;;;;;;23.20;6.20;;;12.20;99.90;;;;;;5071513;28;20044;-58
2022/05/13 04:01:31;;;;;;;21.50;5.53;;;12.20;99.90;;;;;;5071228;28;20044;-59
2022/05/13 04:03:57;;;;;;;17.33;5.18;;;12.20;99.90;;;;;;5072754;28;20036;-58
2022/05/13 04:09:08;;;;;;;21.77;6.25;;;12.20;99.90;;;;;;5057943;28;20040;-58
2022/05/13 04:11:37;;;;;;;18.55;5.15;;;12.20;99.90;;;;;;5071050;28;20092;-58
2022/05/13 04:16:51;;;;;;;22.95;5.70;;;12.30;99.90;;;;;;5045412;28;20044;-57
2022/05/13 04:19:18;;;;;;;24.50;5.47;;;12.30;99.90;;;;;;5070035;28;20066;-57
2022/05/13 04:21:45;;;;;;;25.23;6.35;;;12.30;99.90;;;;;;5065410;28;20048;-57
2022/05/13 04:24:15;;;;;;;26.83;6.00;;;12.20;99.90;;;;;;5071463;28;20039;-57
2022/05/13 04:26:41;;;;;;;23.35;5.75;;;12.20;99.90;;;;;;5064051;28;20540;-57
2022/05/13 04:29:07;;;;;;;21.65;5.60;;;12.20;99.90;;;;;;5050986;28;20036;-57
2022/05/13 04:31:37;;;;;;;19.77;5.65;;;12.20;99.90;;;;;;5065224;28;20060;-58
2022/05/13 04:34:04;;;;;;;25.50;6.38;;;12.30;99.90;;;;;;5065207;28;20055;-58
2022/05/13 04:36:30;;;;;;;20.73;6.05;;;12.30;99.90;;;;;;5070484;28;20509;-57
2022/05/13 04:38:56;;;;;;;23.75;5.80;;;12.30;99.90;;;;;;5067483;28;20079;-57
2022/05/13 04:44:10;;;;;;;22.08;5.50;;;12.30;99.90;;;;;;5072918;28;20052;-59
2022/05/13 04:46:36;;;;;;;22.95;6.03;;;12.30;99.90;;;;;;5066993;28;20044;-59
2022/05/13 04:49:03;;;;;;;24.27;5.50;;;12.30;99.90;;;;;;5068292;28;20114;-59
2022/05/13 04:51:30;;;;;;;18.63;5.38;;;12.30;99.90;;;;;;5068858;28;20032;-59
2022/05/13 04:53:56;;;;;;;16.88;5.22;;;12.30;99.90;;;;;;5064709;28;20386;-58
2022/05/13 04:56:23;;;;;;;19.88;4.75;;;12.30;99.90;;;;;;5061358;28;20491;-58
2022/05/13 04:58:50;;;;;;;17.83;4.72;;;12.40;99.90;;;;;;5063858;28;20196;-58
2022/05/13 05:01:18;;;;;;;18.80;5.40;;;12.40;99.90;;;;;;5055759;28;20099;-58
2022/05/13 05:03:45;;;;;;;17.65;5.18;;;12.40;99.90;;;;;;5051942;28;20044;-58
2022/05/13 05:06:12;;;;;;;17.85;4.88;;;12.40;99.90;;;;;;5048736;28;20116;-57
2022/05/13 05:08:39;;;;;;;18.55;4.22;;;12.50;99.90;;;;;;5063803;28;21912;-58
2022/05/13 05:11:07;;;;;;;22.58;5.18;;;12.50;99.90;;;;;;5063368;28;20075;-59
2022/05/13 05:13:37;;;;;;;19.65;5.30;;;12.50;99.90;;;;;;5065361;28;20573;-58
2022/05/13 05:16:05;;;;;;;17.77;4.50;;;12.50;99.90;;;;;;5050092;28;20141;-57
2022/05/13 05:18:34;;;;;;;14.88;4.57;;;12.60;99.90;;;;;;5059868;28;20124;-59
2022/05/13 05:21:00;;;;;;;18.73;4.53;;;12.60;99.90;;;;;;5061586;28;20131;-57
2022/05/13 05:23:30;;;;;;;17.10;4.50;;;12.60;99.90;;;;;;5062861;28;20040;-57
2022/05/13 05:25:56;;;;;;;17.02;3.60;;;12.60;99.90;;;;;;5064150;28;20732;-58
2022/05/13 05:28:23;;;;;;;12.93;4.03;;;12.70;99.90;;;;;;5062122;28;20040;-61
2022/05/13 05:30:48;;;;;;;16.77;4.00;;;12.70;99.90;;;;;;5056509;28;20079;-60
2022/05/13 05:33:15;;;;;;;12.15;3.70;;;12.70;99.90;;;;;;5041996;28;20101;-61
2022/05/13 05:35:41;;;;;;;8.70;3.05;;;12.70;99.90;;;;;;5066279;28;20467;-61
2022/05/13 05:38:07;;;;;;;15.18;3.08;;;12.80;99.90;;;;;;5068156;28;20048;-61
2022/05/13 05:40:35;;;;;;;17.23;3.25;;;12.80;99.90;;;;;;5057515;28;20059;-62
2022/05/13 05:43:06;;;;;;;10.60;3.50;;;12.90;99.90;;;;;;5050532;28;20048;-61
2022/05/13 05:45:33;;;;;;;10.52;3.30;;;12.90;99.90;;;;;;5054942;28;20087;-62
2022/05/13 05:47:59;;;;;;;13.63;3.40;;;12.90;99.90;;;;;;5046209;28;20063;-62
2022/05/13 05:50:25;;;;;;;8.60;3.20;;;12.90;99.90;;;;;;5062239;28;21141;-61
2022/05/13 05:52:51;;;;;;;11.93;2.85;;;13.00;99.90;;;;;;5062674;28;20055;-61
2022/05/13 05:58:08;;;;;;;11.65;2.90;;;13.00;99.90;;;;;;5069909;28;20036;-59
2022/05/13 06:00:37;;;;;;;10.55;2.97;;;13.00;99.90;;;;;;5051591;28;20048;-61
2022/05/13 06:03:03;;;;;;;10.95;3.33;;;13.00;99.90;;;;;;5067272;28;20148;-62
2022/05/13 06:05:29;;;;;;;14.07;3.35;;;13.00;99.90;;;;;;5051198;28;20088;-61
2022/05/13 06:07:57;;;;;;;10.07;3.13;;;13.00;99.90;;;;;;5065075;28;20395;-61
2022/05/13 06:10:24;;;;;;;16.92;2.97;;;13.00;99.90;;;;;;5062855;28;20618;-61
2022/05/13 06:12:51;;;;;;;15.00;3.53;;;13.00;99.90;;;;;;5059369;28;20082;-61
2022/05/13 06:15:17;;;;;;;10.25;2.97;;;13.00;99.90;;;;;;5062893;28;20470;-61
2022/05/13 06:17:51;;;;;;;13.32;3.05;;;13.10;99.90;;;;;;5066578;28;20067;-62
2022/05/13 06:20:21;;;;;;;15.55;3.05;;;13.10;99.90;;;;;;5053612;28;20459;-61
2022/05/13 06:22:47;;;;;;;20.77;3.20;;;13.10;99.90;;;;;;5056904;28;20132;-61
2022/05/13 06:25:15;;;;;;;10.50;3.00;;;13.10;99.90;;;;;;5073621;28;20048;-61
2022/05/13 06:27:41;;;;;;;7.95;2.70;;;13.10;99.90;;;;;;5066482;28;20032;-60
2022/05/13 06:30:14;;;;;;;14.95;3.05;;;13.20;99.90;;;;;;5071592;28;20051;-62
2022/05/13 06:32:41;;;;;;;10.55;2.88;;;13.20;99.90;;;;;;5056997;28;20075;-62
2022/05/13 06:35:08;;;;;;;23.05;3.58;;;13.20;99.90;;;;;;5071858;28;20076;-61
2022/05/13 06:37:34;;;;;;;10.15;3.22;;;13.30;99.90;;;;;;5075466;28;20551;-61
2022/05/13 06:40:00;;;;;;;11.70;3.10;;;13.30;99.90;;;;;;5063071;28;20052;-62
2022/05/13 06:42:26;;;;;;;12.80;3.22;;;13.40;99.90;;;;;;5065372;28;20072;-62
2022/05/13 06:44:52;;;;;;;11.98;2.92;;;13.40;99.90;;;;;;5066931;28;20044;-61
2022/05/13 06:47:17;;;;;;;12.90;3.10;;;13.50;99.90;;;;;;5062379;28;20059;-59
2022/05/13 06:49:43;;;;;;;10.65;3.03;;;13.60;99.90;;;;;;5066887;28;20101;-60
2022/05/13 06:52:13;;;;;;;11.90;2.95;;;13.60;99.90;;;;;;5070610;28;22707;-59
2022/05/13 06:54:42;;;;;;;10.38;3.03;;;13.70;99.90;;;;;;5075201;28;20040;-61
2022/05/13 06:57:10;;;;;;;13.38;3.15;;;13.80;99.90;;;;;;5062254;28;20093;-62
2022/05/13 06:59:36;;;;;;;11.02;2.60;;;13.90;99.90;;;;;;5066726;28;20601;-61
2022/05/13 07:02:03;;;;;;;15.27;2.97;;;14.00;99.90;;;;;;5063062;28;20070;-62
2022/05/13 07:04:29;;;;;;;10.13;2.67;;;14.00;99.90;;;;;;5058814;28;20044;-62
2022/05/13 07:06:55;;;;;;;10.13;2.78;;;14.10;99.90;;;;;;5073142;28;20464;-62
2022/05/13 07:09:21;;;;;;;9.00;3.08;;;14.10;99.90;;;;;;5067828;28;20062;-61
2022/05/13 07:11:47;;;;;;;9.98;2.65;;;14.10;99.90;;;;;;5064823;28;20068;-61
2022/05/13 07:14:13;;;;;;;12.10;3.05;;;14.10;99.90;;;;;;5066444;28;20051;-61
2022/05/13 07:16:39;;;;;;;8.15;2.63;;;14.10;99.90;;;;;;5047612;28;20135;-61
2022/05/13 07:19:06;;;;;;;10.27;2.90;;;14.10;99.90;;;;;;5065474;28;20052;-61
2022/05/13 07:21:32;;;;;;;9.20;2.67;;;14.10;99.90;;;;;;5060280;28;20039;-61
2022/05/13 07:23:58;;;;;;;8.63;2.80;;;14.20;99.90;;;;;;5059983;28;20624;-59
2022/05/13 07:26:23;;;;;;;7.05;2.55;;;14.40;99.90;;;;;;5046422;28;20064;-60
2022/05/13 07:28:49;;;;;;;10.52;2.53;;;14.50;99.90;;;;;;5052355;28;20048;-62
2022/05/13 07:31:15;;;;;;;14.30;2.92;;;14.70;99.90;;;;;;5061055;28;20497;-62
2022/05/13 07:33:41;;;;;;;11.13;2.55;;;14.70;99.90;;;;;;5061769;28;20101;-62
2022/05/13 07:36:07;;;;;;;8.63;2.53;;;14.70;99.90;;;;;;5067060;28;20068;-61
2022/05/13 07:38:34;;;;;;;9.45;2.35;;;14.70;99.90;;;;;;5067635;28;20045;-61
2022/05/13 07:41:20;;;;;;;10.40;2.45;;;14.70;99.90;;;;;;5048731;28;20506;-61
2022/05/13 07:43:46;;;;;;;8.27;2.65;;;14.70;99.90;;;;;;5069344;28;20127;-62
2022/05/13 07:46:13;;;;;;;6.25;2.40;;;14.70;99.90;;;;;;5031026;28;20115;-61
2022/05/13 07:48:41;;;;;;;10.90;2.28;;;14.70;99.90;;;;;;5068874;28;20127;-62
2022/05/13 07:51:08;;;;;;;11.27;2.30;;;14.70;99.90;;;;;;5067433;28;20482;-62
2022/05/13 07:53:34;;;;;;;6.60;2.30;;;14.60;99.90;;;;;;5073549;28;20506;-62
2022/05/13 07:56:01;;;;;;;8.23;2.60;;;14.60;99.90;;;;;;5055010;28;20043;-62
2022/05/13 07:58:28;;;;;;;7.47;2.33;;;14.60;99.90;;;;;;5064773;28;20127;-61
2022/05/13 08:00:54;;;;;;;5.68;2.10;;;14.60;99.90;;;;;;5063508;28;20049;-60
2022/05/13 08:03:21;;;;;;;9.75;2.17;;;14.80;99.90;;;;;;5041164;28;20432;-61
2022/05/13 08:05:52;;;;;;;10.00;2.40;;;14.80;99.90;;;;;;5068051;28;20085;-61
2022/05/13 08:08:30;;;;;;;6.78;1.80;;;14.80;99.90;;;;;;5051609;28;20114;-62
2022/05/13 08:10:59;;;;;;;16.00;2.53;;;14.70;99.90;;;;;;5067925;28;20054;-62
2022/05/13 08:13:25;;;;;;;7.07;1.70;;;14.70;99.90;;;;;;5070401;28;20546;-62
2022/05/13 08:15:51;;;;;;;7.80;2.17;;;14.70;99.90;;;;;;5068411;28;20650;-61
2022/05/13 08:18:19;;;;;;;7.90;2.40;;;14.80;99.90;;;;;;5071149;28;20059;-60
2022/05/13 08:20:46;;;;;;;10.25;2.53;;;14.80;99.90;;;;;;5068399;28;20044;-62
2022/05/13 08:23:12;;;;;;;7.07;1.92;;;14.70;99.90;;;;;;5064656;28;20044;-61
2022/05/13 08:25:39;;;;;;;10.70;2.33;;;14.80;99.90;;;;;;5055179;28;20367;-62
2022/05/13 08:28:06;;;;;;;9.68;2.33;;;14.80;99.90;;;;;;5069113;28;20120;-62
2022/05/13 08:30:32;;;;;;;9.65;2.30;;;14.90;99.90;;;;;;5071933;28;20121;-62
2022/05/13 08:33:01;;;;;;;10.90;2.00;;;14.80;99.90;;;;;;5068133;28;20131;-62
2022/05/13 08:35:27;;;;;;;7.55;2.08;;;14.90;99.90;;;;;;5039678;28;20127;-60
2022/05/13 08:37:53;;;;;;;7.05;2.10;;;14.90;99.90;;;;;;5062514;28;20062;-62
2022/05/13 08:40:43;;;;;;;9.90;2.53;;;15.10;99.90;;;;;;5045824;28;20416;-62
2022/05/13 08:43:13;;;;;;;10.25;2.30;;;15.40;99.90;;;;;;5059021;28;20355;-62
2022/05/13 08:45:49;;;;;;;12.07;2.40;;;15.50;99.90;;;;;;5049276;28;20044;-62
2022/05/13 08:48:17;;;;;;;8.27;2.25;;;15.50;99.90;;;;;;5066557;28;20043;-60
2022/05/13 08:51:00;;;;;;;10.10;2.30;;;15.50;99.90;;;;;;5065208;28;20052;-60
2022/05/13 08:53:41;;;;;;;8.55;2.10;;;15.40;99.90;;;;;;5062842;28;20063;-61
2022/05/13 08:56:09;;;;;;;8.32;2.20;;;15.30;99.90;;;;;;5071542;28;20044;-61
2022/05/13 08:58:49;;;;;;;8.27;2.00;;;15.20;99.90;;;;;;5069920;28;20097;-62
2022/05/13 09:01:24;;;;;;;7.47;2.00;;;15.30;99.90;;;;;;5064311;28;20604;-61
2022/05/13 09:04:00;;;;;;;8.40;1.92;;;15.60;99.90;;;;;;5061941;28;20044;-62
2022/05/13 09:06:51;;;;;;;8.38;2.15;;;15.80;99.60;;;;;;5061667;28;20044;-61
2022/05/13 09:09:17;;;;;;;8.50;2.30;;;15.90;99.10;;;;;;5049304;28;20069;-62
2022/05/13 09:12:23;;;;;;;8.90;2.00;;;15.80;98.80;;;;;;5029507;28;20055;-61
2022/05/13 09:15:05;;;;;;;9.75;2.13;;;15.70;99.00;;;;;;5065536;28;20138;-62
2022/05/13 09:17:35;;;;;;;7.43;1.75;;;15.70;99.20;;;;;;5066568;28;20048;-62
2022/05/13 09:20:21;;;;;;;9.90;2.13;;;15.80;99.30;;;;;;5061783;28;20399;-61
2022/05/13 09:22:51;;;;;;;7.95;2.00;;;15.90;99.20;;;;;;5063426;28;20048;-62
2022/05/13 09:25:24;;;;;;;3.72;1.60;;;16.00;98.60;;;;;;5055139;28;20055;-62
2022/05/13 09:27:56;;;;;;;;;;;15.80;98.30;;;;;;5048184;28;20807;-61
2022/05/13 09:30:28;;;;;;;8.95;1.90;;;15.80;98.50;;;;;;5062870;28;20006;-61
2022/05/13 09:32:54;;;;;;;7.80;1.95;;;15.80;98.70;;;;;;5061923;28;20117;-60
2022/05/13 09:35:41;;;;;;;9.07;1.75;;;15.90;98.70;;;;;;5067300;28;20055;-61
2022/05/13 09:38:24;;;;;;;8.93;1.75;;;15.90;98.30;;;;;;5068283;28;20036;-61
2022/05/13 09:41:00;;;;;;;;;;;15.80;98.00;;;;;;5061737;28;20056;-61
2022/05/13 09:43:40;;;;;;;6.18;1.63;;;15.70;98.30;;;;;;5066398;28;19920;-60
2022/05/13 09:46:09;;;;;;;6.50;1.70;;;15.70;98.40;;;;;;5046829;28;20063;-62
2022/05/13 09:48:38;;;;;;;6.20;1.45;;;15.60;98.50;;;;;;5066945;28;20874;-62
2022/05/13 09:51:25;;;;;;;11.48;1.70;;;15.60;98.60;;;;;;5066173;28;22526;-61
2022/05/13 09:54:15;;;;;;;4.60;1.40;;;15.60;98.50;;;;;;5068792;28;20075;-58
2022/05/13 09:56:44;;;;;;;7.63;1.55;;;15.70;98.30;;;;;;5057303;28;20051;-62
2022/05/13 09:59:24;;;;;;;6.22;1.63;;;15.70;98.20;;;;;;5046319;28;20775;-61
2022/05/13 10:01:51;;;;;;;9.65;1.75;;;15.60;97.90;;;;;;5067220;28;20743;-61
2022/05/13 10:04:22;;;;;;;6.60;2.08;;;15.60;97.90;;;;;;5050389;28;20075;-63
2022/05/13 10:06:48;;;;;;;6.97;1.90;;;15.80;98.20;;;;;;5066123;28;20489;-62
2022/05/13 10:15:11;;;;;;;6.50;2.10;;;16.80;97.10;;;;;;5062249;28;20059;-59
2022/05/13 10:17:48;;;;;;;9.23;2.42;;;17.00;96.20;;;;;;5070371;28;20497;-62
2022/05/13 10:20:37;;;;;;;9.82;2.45;;;17.30;95.50;;;;;;5066070;28;20057;-62
2022/05/13 10:23:19;;;;;;;8.85;1.98;;;17.50;96.00;;;;;;5065789;28;20052;-62
2022/05/13 10:25:59;;;;;;;12.63;1.77;;;17.60;94.70;;;;;;5067108;28;20078;-61
2022/05/13 10:28:52;;;;;;;11.27;2.13;;;17.70;93.90;;;;;;5066985;28;20052;-61
2022/05/13 10:31:25;;;;;;;11.73;2.10;;;18.10;94.50;;;;;;5063864;28;20213;-61
2022/05/13 10:34:20;;;;;;;9.43;2.00;;;18.40;93.40;;;;;;5063746;28;20566;-62
2022/05/13 10:37:09;;;;;;;4.00;1.65;;;18.60;93.60;;;;;;5063646;28;20048;-61
2022/05/13 10:39:51;;;;;;;7.68;1.92;;;18.70;92.70;;;;;;5068070;28;20150;-62
2022/05/13 10:42:33;;;;;;;8.65;1.77;;;18.60;90.40;;;;;;5068051;28;20052;-62
2022/05/13 10:45:07;;;;;;;6.47;1.70;;;18.40;90.10;;;;;;5061546;28;20501;-59
2022/05/13 10:47:50;;;;;;;6.13;1.60;;;18.20;90.10;;;;;;5075845;28;20052;-61
2022/05/13 10:50:24;;;;;;;5.82;2.10;;;18.20;90.60;;;;;;5074509;28;20642;-61
2022/05/13 10:52:56;;;;;;;4.78;1.65;;;18.40;91.20;;;;;;5074126;28;20040;-61
2022/05/13 10:55:41;;;;;;;8.60;2.00;;;18.70;90.30;;;;;;5074274;28;20052;-62
2022/05/13 10:58:16;;;;;;;10.18;2.17;;;18.70;88.80;;;;;;5070334;28;20082;-61
2022/05/13 11:01:02;;;;;;;7.07;1.73;;;18.60;87.80;;;;;;5072171;28;20496;-61
2022/05/13 11:03:40;;;;;;;6.43;1.40;;;18.40;86.90;;;;;;5057025;28;20040;-62
2022/05/13 11:06:20;;;;;;;9.25;1.65;;;18.20;85.50;;;;;;5075177;28;20120;-62
2022/05/13 11:09:04;;;;;;;4.30;1.50;;;17.90;84.00;;;;;;5058970;28;20127;-59
2022/05/13 11:11:41;;;;;;;7.97;1.80;;;17.60;84.90;;;;;;5064861;28;20216;-62
2022/05/13 11:14:18;;;;;;;4.63;1.58;;;17.40;85.30;;;;;;5070049;28;20045;-61
2022/05/13 11:17:09;;;;;;;7.63;2.05;;;17.30;86.70;;;;;;5063793;28;20048;-61
2022/05/13 11:19:52;;;;;;;9.10;1.90;;;17.20;87.80;;;;;;5057210;28;20085;-60
2022/05/13 11:22:39;;;;;;;9.10;2.35;;;17.20;89.30;;;;;;5068267;28;20118;-62
2022/05/13 11:28:09;;;;;;;10.57;2.25;;;17.20;90.10;;;;;;5051763;28;20040;-61
2022/05/13 11:31:02;;;;;;;7.35;1.80;;;17.10;89.20;;;;;;5068064;28;20096;-61
2022/05/13 11:33:51;;;;;;;10.60;2.22;;;17.10;90.10;;;;;;5071932;28;20074;-60
2022/05/13 11:36:30;;;;;;;7.55;2.20;;;17.10;90.00;;;;;;5072779;28;20474;-62
2022/05/13 11:38:59;;;;;;;7.07;2.03;;;17.10;90.20;;;;;;5072454;28;20189;-60
2022/05/13 11:41:43;;;;;;;6.22;2.20;;;17.10;90.50;;;;;;5055076;28;20043;-61
2022/05/13 11:44:10;;;;;;;13.88;2.97;;;17.10;90.80;;;;;;5053321;28;20036;-61
2022/05/13 11:47:04;;;;;;;10.18;2.38;;;17.10;91.00;;;;;;5066867;28;20043;-61
2022/05/13 11:49:36;;;;;;;8.95;2.33;;;17.10;91.00;;;;;;5063717;28;20426;-60
2022/05/13 11:52:11;;;;;;;12.32;2.40;;;17.10;91.20;;;;;;5066016;28;20147;-62
2022/05/13 11:54:39;;;;;;;10.48;2.38;;;17.10;91.60;;;;;;5065224;28;20040;-61
2022/05/13 11:57:18;;;;;;;8.18;2.55;;;17.20;91.30;;;;;;5048999;28;20048;-62
2022/05/13 11:59:49;;;;;;;8.00;1.92;;;17.20;90.90;;;;;;5069142;28;20048;-61
2022/05/13 12:02:50;;;;;;;8.05;2.10;;;17.20;90.40;;;;;;5066165;28;20048;-60
2022/05/13 12:05:19;;;;;;;7.90;2.10;;;17.20;89.90;;;;;;4977176;28;20088;-61
2022/05/13 12:07:53;;;;;;;8.00;2.10;;;17.10;89.80;;;;;;5051917;28;20133;-62
2022/05/13 12:10:46;;;;;;;8.18;1.98;;;17.10;89.60;;;;;;5068102;28;20178;-62
2022/05/13 12:13:26;;;;;;;8.32;2.40;;;17.00;90.10;;;;;;5067539;28;20044;-60
2022/05/13 12:16:17;;;;;;;6.90;2.10;;;17.00;90.30;;;;;;5063754;28;20082;-61
2022/05/13 12:18:52;;;;;;;7.93;2.20;;;17.00;90.00;;;;;;5035443;28;20047;-62
2022/05/13 12:21:41;;;;;;;5.65;2.17;;;16.90;90.00;;;;;;5068005;28;20059;-62
2022/05/13 12:24:10;;;;;;;10.18;2.53;;;17.10;90.20;;;;;;5053594;28;20073;-61
2022/05/13 12:27:03;;;;;;;20.77;2.47;;;17.40;90.40;;;;;;5068393;28;20055;-61
2022/05/13 12:29:50;;;;;;;11.18;2.83;;;17.70;90.30;;;;;;5063789;28;20044;-62
2022/05/13 12:32:23;;;;;;;11.75;2.50;;;17.80;90.20;;;;;;5040783;28;20411;-61
2022/05/13 12:37:47;;;;;;;8.30;2.60;;;17.80;90.00;;;;;;5009791;28;20441;-62
2022/05/13 12:40:22;;;;;;;12.50;2.40;;;17.60;90.30;;;;;;5023751;28;20086;-62
2022/05/13 12:42:48;;;;;;;4.78;2.00;;;17.50;90.40;;;;;;5044375;28;20048;-60
2022/05/13 12:45:42;;;;;;;6.93;2.08;;;17.50;90.20;;;;;;5040919;28;20047;-62
2022/05/13 12:48:07;;;;;;;7.50;2.05;;;17.50;88.60;;;;;;5043253;28;20044;-62
2022/05/13 12:50:53;;;;;;;9.18;2.20;;;17.50;88.60;;;;;;5043411;28;20528;-61
2022/05/13 12:53:48;;;;;;;7.30;2.25;;;17.70;88.80;;;;;;5045199;28;20132;-61
2022/05/13 12:56:27;;;;;;;7.80;2.53;;;17.80;88.10;;;;;;5017847;28;20272;-61
2022/05/13 12:59:02;;;;;;;8.73;2.65;;;17.70;88.30;;;;;;5040123;28;20055;-62
2022/05/13 13:01:28;;;;;;;12.05;2.38;;;17.70;88.40;;;;;;5045457;28;20646;-62
2022/05/13 13:03:55;;;;;;;7.93;1.90;;;17.80;88.90;;;;;;5045144;28;20041;-61
2022/05/13 13:06:23;;;;;;;7.05;1.75;;;17.90;87.00;;;;;;5044937;28;20043;-61
2022/05/13 13:08:54;;;;;;;6.47;1.73;;;18.20;85.50;;;;;;5044821;28;20044;-61
2022/05/13 13:11:44;;;;;;;5.85;2.35;;;18.50;84.40;;;;;;5027980;28;20048;-62
2022/05/13 13:14:36;;;;;;;7.88;1.80;;;18.80;82.30;;;;;;5049171;28;20082;-62
2022/05/13 13:17:08;;;;;;;8.32;1.77;;;18.80;79.80;;;;;;5043326;28;20055;-62
2022/05/13 13:19:36;;;;;;;7.60;1.77;;;18.70;79.00;;;;;;5044312;28;20041;-61
2022/05/13 13:22:08;;;;;;;8.90;2.08;;;18.70;77.20;;;;;;5040223;28;20044;-60
2022/05/13 13:24:35;;;;;;;;;;;18.60;77.30;;;;;;5046844;28;20045;-62
2022/05/13 13:27:04;;;;;;;5.82;1.83;;;18.60;78.00;;;;;;5049251;28;20286;-61